• Join FlightAware (Why Join?)
  • Login
  • US Flag 
01:10AM EDT


 

Airport Tracker/Info


-or-


 

Live Flight TrackerFlight Track Log ✈ LOF3359 ✈ 11-Apr-2013 ✈ KDAY - KIAD

Flight Track Log - Related Links

Times and Time Zones

All times are in EDT time to prevent confusion due to time zone crossing. See the LOF3359 flight status page for this flight to view local times or setup timezone preferences in your user account.

Time Position Orientation Groundspeed Altitude Reporting Facility
EDT Latitude Longitude Course Direction KTS MPH feet Rate Location/Type
02:47PM 39.9119 -84.1519 78° East 183 211 2,400  Level Indianapolis Center
02:48PM 39.9219 -84.0750 80° East 208 239 3,700 1,500 Climbing Indianapolis Center
02:49PM 39.9372 -83.9778 78° East 249 287 5,600 2,040 Climbing Indianapolis Center
02:50PM 39.9896 -83.5681 79° East  Level FlightAware Approximate
02:50PM 39.9503 -83.8606 82° East 270 311 8,000  Level Indianapolis Center
02:51PM 40.0135 -83.4392 74° East  Level FlightAware Approximate
02:51PM 39.9661 -83.7575 79° East 279 321 9,800  Level Indianapolis Center
02:52PM 39.9869 -83.6472 76° East 300 345 11,000 1,080 Climbing Indianapolis Center
02:53PM 40.0064 -83.5256 78° East 334 384 12,100 1,080 Climbing Indianapolis Center
02:54PM 40.0272 -83.3981 78° East 351 404 13,300 1,080 Climbing Indianapolis Center
02:55PM 40.0464 -83.2675 79° East 359 413 14,400 960 Climbing Indianapolis Center
02:56PM 40.0675 -83.1339 78° East 370 426 15,400 840 Climbing Indianapolis Center
02:57PM 40.0886 -82.9961 79° East 381 438 16,200 780 Climbing Indianapolis Center
02:58PM 40.1106 -82.8553 78° East 391 450 17,100 780 Climbing Indianapolis Center
02:59PM 40.1200 -82.7147 85° East 385 443 17,900 840 Climbing Indianapolis Center
03:00PM 40.1119 -82.5519 94° East 382 440 18,900 900 Climbing Indianapolis Center
03:01PM 40.1050 -82.4083 94° East 391 450 19,800 840 Climbing Indianapolis Center
03:02PM 40.0983 -82.2647 93° East 393 452 20,700 780 Climbing Indianapolis Center
03:03PM 40.0903 -82.1186 94° East 398 458 21,500 780 Climbing Indianapolis Center
03:04PM 40.0833 -81.9719 93° East 401 461 22,400 720 Climbing Indianapolis Center
03:05PM 40.0747 -81.8242 94° East 406 467 23,000 240 Climbing Indianapolis Center
03:06PM 40.0656 -81.6575 94° East 424 488 23,000 -240 Level Indianapolis Center
03:07PM 40.0567 -81.4964 94° East 440 506 22,600 -720 Descending Indianapolis Center
03:08PM 40.0464 -81.3250 94° East 466 536 21,600 -780 Descending Indianapolis Center
03:09PM 40.0283 -81.1036 96° East 472 543 21,000 -300 Descending Cleveland Center
03:10PM 39.9789 -80.9569 114° Southeast 446 513 21,000  Level Cleveland Center
03:11PM 39.9253 -80.8106 115° Southeast 446 513 21,000  Level Cleveland Center
03:12PM 39.8711 -80.6669 116° Southeast 441 507 21,000  Level Cleveland Center
03:13PM 39.8169 -80.5236 116° Southeast 441 507 21,000  Level Cleveland Center
03:14PM 39.7647 -80.3833 116° Southeast 441 507 21,000  Level Cleveland Center
03:17PM 39.6522 -80.1008 117° Southeast 430 495 21,000  Level Washington Center
03:18PM 39.5989 -79.9628 117° Southeast 430 495 21,000  Level Washington Center
03:19PM 39.5500 -79.8172 113° Southeast 435 501 21,000  Level Washington Center
03:20PM 39.5242 -79.6594 102° East 440 506 21,000  Level Washington Center
03:21PM 39.4958 -79.5047 103° East 445 512 21,000  Level Washington Center
03:22PM 39.4656 -79.3444 104° East 445 512 21,000  Level Washington Center
03:23PM 39.4392 -79.1897 102° East 445 512 21,000 -480 Level Washington Center
03:24PM 39.4122 -79.0408 103° East 439 505 20,100 -1,140 Descending Washington Center
03:25PM 39.3792 -78.8808 105° East 423 487 18,800 -1,440 Descending Washington Center
03:26PM 39.3556 -78.7536 103° East 413 475 17,300 -1,680 Descending Washington Center
03:27PM 39.3281 -78.5994 103° East 406 467 15,500 -1,800 Descending Washington Center
03:28PM 39.3061 -78.4778 103° East 389 448 13,800 -1,980 Descending Washington Center
03:29PM 39.2717 -78.3422 108° East 370 426 11,600 -1,500 Descending Washington Center
03:30PM 39.2300 -78.2575 122° Southeast 326 375 10,900 -1,200 Descending Washington Center
03:31PM 39.1800 -78.1622 124° Southeast 301 346 9,200 -1,620 Descending Washington Center
03:32PM 39.1378 -78.0856 125° Southeast 290 334 7,700 -1,140 Descending Washington Center
03:33PM 39.0894 -77.9958 125° Southeast 284 327 7,000 -360 Descending Washington Center
03:34PM 39.0514 -77.9222 124° Southeast 279 321 7,000 -480 Level Washington Center
03:35PM 39.0050 -77.8328 124° Southeast 279 321 6,100 -540 Descending Washington Center
03:36PM 38.9669 -77.7594 124° Southeast 274 315 6,000 -120 Descending Washington Center
03:38PM 39.0167 -77.5833 70° East 287 330 5,900 -480 Descending Potomac TRACON
03:39PM 39.1000 -77.5667 North 274 315 4,600 -1,320 Descending Potomac TRACON
03:40PM 39.1333 -77.5333 38° Northeast 251 289 3,300 -900 Descending Potomac TRACON
03:41PM 39.1000 -77.4667 123° Southeast 183 211 2,900 -420 Descending Potomac TRACON